U24319 / G-EZDA 7700 Squawk Report (18th of January, 2019)

Aircraft A319 Reg No. G-EZDA Age 11 years old
Model A319 Jet engines 2 First flight 12-02-08
Registered 21-02-08 Rollout 02-08 Delivered 21-02-08
Construction No. 3413 Line No. N/A Series 111
ADSHEX 405631 Airline name easyJet Owner N/A
Airfield based Luton~Beds~G First tracked 2017-07-13 09:18:00

Flight history for G-EZDA

Route Flight No Date Playback
Schiphol (AMS) - Luton (LTN) U22162 2019-02-19 21:05:00
Luton (LTN) - Schiphol (AMS) U22161 2019-02-19 20:04:00
Barcelona (BCN) - Luton (LTN) U22266 2019-02-19 18:22:00
Luton (LTN) - Barcelona (BCN) U22265 2019-02-19 13:12:00
Barcelona (BCN) - Luton (LTN) U22266 2019-02-18 16:15:00
Luton (LTN) - Barcelona (BCN) U22265 2019-02-18 13:39:00
Dortmund (DTM) - Luton (LTN) U22174 2019-02-18 11:40:00
Luton (LTN) - Dortmund (DTM) U22173 2019-02-18 08:42:00
Fiumicino (FCO) - Luton (LTN) U22418 2019-02-18 07:02:00
Luton (LTN) - Fiumicino (FCO) U22417 2019-02-17 19:25:00
Capodichino (NAP) - Luton (LTN) U22416 2019-02-17 14:47:00
Luton (LTN) - Capodichino (NAP) U22415 2019-02-17 11:34:00
Schiphol (AMS) - Luton (LTN) U22152 2019-02-17 09:05:00
Salzburg (SZG) - Schiphol (AMS) U27994 2019-02-16 18:09:00
Hamburg (HAM) - Salzburg (SZG) U23433 2019-02-16 16:49:00
Salzburg (SZG) - Hamburg (HAM) U23434 2019-02-16 14:42:00
Schiphol (AMS) - Salzburg (SZG) U27993 2019-02-16 11:36:00
Gatwick (LGW) - Schiphol (AMS) U28871 2019-02-16 10:20:00
Schiphol (AMS) - Gatwick (LGW) U28868 2019-02-16 08:06:00
Malpensa (MXP) - Schiphol (AMS) U22731 2019-02-16 06:05:00
Time Lat Lon Altitude Heading Speed Vertical Rate
2019-01-18 17:02:07 GMT 45.714993 5.084007 0 354 0
2019-01-18 17:02:04 GMT 45.714996 5.084009 0 354 0
2019-01-18 17:01:53 GMT 45.714890 5.084009 0 354 4
2019-01-18 17:01:38 GMT 45.714458 5.084061 0 357 8
2019-01-18 17:01:06 GMT 45.714146 5.084560 0 258 0
2019-01-18 17:00:40 GMT 45.714157 5.084558 0 258 0
2019-01-18 17:00:20 GMT 45.714157 5.084560 0 258 0
2019-01-18 16:59:57 GMT 45.714157 5.084576 0 258 2
2019-01-18 16:59:46 GMT 45.714214 5.084970 0 233 9
2019-01-18 16:57:12 GMT 45.724297 5.084024 0 174 18
2019-01-18 16:57:02 GMT 45.725018 5.083941 0 174 17
2019-01-18 16:56:29 GMT 45.727390 5.083649 0 174 15
2019-01-18 16:56:09 GMT 45.728638 5.083494 0 177 14
2019-01-18 16:55:55 GMT 45.729576 5.083391 0 174 15
We lost coverage of the aircraft here for a total of 122 minutes
2019-01-18 14:54:19 GMT 45.714531 5.089828 675 355 125 -384
2019-01-18 14:54:14 GMT 45.711319 5.090172 750 356 125 -576
2019-01-18 14:54:08 GMT 45.708527 5.090515 800 356 126 -640
2019-01-18 14:54:03 GMT 45.705643 5.090890 850 355 125 -640
2019-01-18 14:53:57 GMT 45.701706 5.091359 925 356 125 -640
2019-01-18 14:53:53 GMT 45.698868 5.091694 1,000 355 125 -704
2019-01-18 14:53:48 GMT 45.696533 5.091962 1,025 355 125 -704
2019-01-18 14:53:41 GMT 45.692825 5.092431 1,125 355 125 -640
2019-01-18 14:53:38 GMT 45.690079 5.092766 1,175 356 125 -768
2019-01-18 14:53:33 GMT 45.687744 5.093034 1,225 356 126 -768
2019-01-18 14:53:21 GMT 45.681107 5.093880 1,350 356 125 -640
2019-01-18 14:53:15 GMT 45.677765 5.094307 1,425 356 128 -704
2019-01-18 14:53:12 GMT 45.675522 5.094566 1,475 356 128 -704
2019-01-18 14:53:06 GMT 45.671585 5.095044 1,550 355 128 -704
2019-01-18 14:53:01 GMT 45.669327 5.095322 1,600 356 127 -576
2019-01-18 14:52:55 GMT 45.665604 5.095802 1,650 356 128 -768
2019-01-18 14:52:50 GMT 45.663071 5.096048 1,725 355 128 -704
2019-01-18 14:52:46 GMT 45.660156 5.096420 1,775 355 127 -704
2019-01-18 14:52:39 GMT 45.656433 5.096901 1,850 356 127 -704
2019-01-18 14:52:36 GMT 45.654648 5.097120 1,900 356 129 -704
2019-01-18 14:52:33 GMT 45.652847 5.097313 1,925 356 131 -704
2019-01-18 14:52:30 GMT 45.651173 5.097519 1,950 356 133 -768
2019-01-18 14:52:24 GMT 45.646935 5.098000 2,050 356 138 -832
2019-01-18 14:52:20 GMT 45.644485 5.098326 2,100 355 137 -640
2019-01-18 14:52:15 GMT 45.641373 5.098728 2,150 355 136 -768
2019-01-18 14:52:12 GMT 45.639908 5.098862 2,175 356 138 -832
2019-01-18 14:52:06 GMT 45.635284 5.099465 2,275 356 140 -832
2019-01-18 14:51:54 GMT 45.627319 5.100403 2,450 356 142 -832
2019-01-18 14:51:49 GMT 45.623661 5.100883 2,550 356 142 -832
2019-01-18 14:51:45 GMT 45.621845 5.101089 2,575 355 143 -832
2019-01-18 14:51:42 GMT 45.619984 5.101364 2,625 356 143 -768
2019-01-18 14:51:39 GMT 45.616676 5.101776 2,675 356 144 -576
2019-01-18 14:51:35 GMT 45.614910 5.101982 2,725 356 144 -576
2019-01-18 14:51:32 GMT 45.613094 5.102188 2,750 356 145 -512
2019-01-18 14:51:24 GMT 45.607819 5.102814 2,825 356 146 -512
2019-01-18 14:51:21 GMT 45.605896 5.103015 2,850 356 147 -576
2019-01-18 14:51:11 GMT 45.599079 5.103836 2,900 356 149 64
2019-01-18 14:51:04 GMT 45.593262 5.104489 2,900 355 157 0
2019-01-18 14:51:00 GMT 45.591522 5.104690 2,900 356 161 64
2019-01-18 14:50:53 GMT 45.586140 5.105278 2,875 357 172 64
2019-01-18 14:50:49 GMT 45.583054 5.105628 2,875 357 177 64
2019-01-18 14:50:42 GMT 45.577377 5.106097 2,875 358 186 -64
2019-01-18 14:50:39 GMT 45.574825 5.106239 2,875 359 187 0
2019-01-18 14:50:33 GMT 45.568497 5.106298 2,900 4 188 -128
2019-01-18 14:50:28 GMT 45.564445 5.105690 2,900 8 188 -64
2019-01-18 14:50:22 GMT 45.559616 5.103752 2,900 23 188 0
2019-01-18 14:50:19 GMT 45.556999 5.101845 2,900 31 188 64
2019-01-18 14:50:12 GMT 45.551971 5.097382 2,900 32 188 0
2019-01-18 14:50:08 GMT 45.549454 5.095111 2,900 32 188 0
2019-01-18 14:50:02 GMT 45.544243 5.090421 2,900 32 190 -128
2019-01-18 14:49:57 GMT 45.541355 5.087876 2,900 32 190 -64
2019-01-18 14:49:51 GMT 45.536591 5.083596 2,900 32 190 0
2019-01-18 14:49:47 GMT 45.534027 5.081373 2,900 31 189 64
2019-01-18 14:49:40 GMT 45.528786 5.076755 2,900 31 189 -64
2019-01-18 14:49:37 GMT 45.525650 5.073918 2,925 32 190 -64
2019-01-18 14:49:30 GMT 45.520111 5.068948 2,925 33 192 0
2019-01-18 14:49:26 GMT 45.517822 5.066790 2,900 34 195 -64
2019-01-18 14:49:20 GMT 45.513332 5.062085 2,925 41 201 -64
2019-01-18 14:49:16 GMT 45.510727 5.058550 2,925 51 204 -192
2019-01-18 14:49:10 GMT 45.507339 5.051357 2,975 66 209 -704
2019-01-18 14:49:05 GMT 45.505978 5.046074 3,025 76 211 -1024
2019-01-18 14:48:59 GMT 45.505047 5.037834 3,150 87 213 -1216
2019-01-18 14:48:54 GMT 45.504868 5.031215 3,250 88 213 -1216
2019-01-18 14:48:49 GMT 45.504719 5.022561 3,375 88 213 -1216
2019-01-18 14:48:44 GMT 45.504593 5.015978 3,500 88 211 -1408
2019-01-18 14:48:37 GMT 45.504395 5.007421 3,625 88 211 -1088
2019-01-18 14:48:34 GMT 45.504299 5.002062 3,700 88 211 -896
2019-01-18 14:48:28 GMT 45.504135 4.993417 3,800 88 213 -704
2019-01-18 14:48:24 GMT 45.504021 4.987458 3,850 88 214 -576
2019-01-18 14:48:17 GMT 45.503788 4.977142 3,900 88 218 -384
2019-01-18 14:48:13 GMT 45.503677 4.972883 3,925 88 220 -384
2019-01-18 14:48:06 GMT 45.503494 4.962289 4,000 87 224 -576
2019-01-18 14:48:02 GMT 45.503357 4.956600 4,025 88 226 -576
2019-01-18 14:47:55 GMT 45.503090 4.946058 4,100 88 229 -704
2019-01-18 14:47:52 GMT 45.502998 4.941905 4,150 88 231 -704
2019-01-18 14:47:48 GMT 45.502811 4.932258 4,225 88 234 -640
2019-01-18 14:47:44 GMT 45.502766 4.930115 4,250 88 236 -704
2019-01-18 14:47:41 GMT 45.502670 4.925894 4,275 88 237 -768
2019-01-18 14:47:37 GMT 45.502529 4.917789 4,350 88 240 -832
2019-01-18 14:47:34 GMT 45.502441 4.913439 4,400 88 241 -1024
2019-01-18 14:47:31 GMT 45.502346 4.907137 4,450 88 242 -1408
2019-01-18 14:47:27 GMT 45.502251 4.901175 4,575 89 242 -1536
2019-01-18 14:47:24 GMT 45.502251 4.895481 4,675 89 242 -1344
2019-01-18 14:47:20 GMT 45.502213 4.892055 4,725 89 242 -1280
2019-01-18 14:47:16 GMT 45.502159 4.885232 4,800 89 244 -1152
2019-01-18 14:47:10 GMT 45.502121 4.875314 4,900 89 245 -1088
2019-01-18 14:47:07 GMT 45.502068 4.869757 5,000 89 247 -960
2019-01-18 14:47:02 GMT 45.501881 4.853947 5,075 88 253 -768
2019-01-18 14:46:57 GMT 45.501881 4.853947 5,125 88 254 -896
2019-01-18 14:46:49 GMT 45.501553 4.835659 5,325 88 257 -1600
2019-01-18 14:46:38 GMT 45.501274 4.823065 5,550 88 257 -1472
2019-01-18 14:46:35 GMT 45.501160 4.816524 5,650 88 258 -1344
2019-01-18 14:46:31 GMT 45.501022 4.809723 5,725 88 259 -1280
2019-01-18 14:46:28 GMT 45.500885 4.804949 5,800 88 259 -1344
2019-01-18 14:46:25 GMT 45.500763 4.799150 5,875 88 260 -1344
2019-01-18 14:46:20 GMT 45.500610 4.790039 6,000 88 260 -1344
2019-01-18 14:46:15 GMT 45.500427 4.783042 6,100 88 262 -1216
2019-01-18 14:46:09 GMT 45.500198 4.771990 6,225 88 263 -1088
2019-01-18 14:46:05 GMT 45.500061 4.765778 6,275 88 265 -960
2019-01-18 14:45:59 GMT 45.499832 4.754595 6,375 88 269 -768
2019-01-18 14:45:55 GMT 45.499649 4.746355 6,425 88 271 -768
2019-01-18 14:45:48 GMT 45.499458 4.735509 6,525 88 276 -960
2019-01-18 14:45:45 GMT 45.499420 4.730072 6,625 97 292 -1600
2019-01-18 14:45:38 GMT 45.499466 4.717189 6,750 92 280 -1472
2019-01-18 14:45:34 GMT 45.499691 4.710120 6,850 94 280 -1408
2019-01-18 14:45:28 GMT 45.500656 4.697113 7,000 98 285 -1280
2019-01-18 14:45:22 GMT 45.501617 4.688416 7,125 99 287 -1472
2019-01-18 14:45:16 GMT 45.503220 4.674094 7,325 98 288 -1664
2019-01-18 14:45:11 GMT 45.503834 4.668453 7,400 98 291 -1408
2019-01-18 14:45:03 GMT 45.505558 4.651973 7,650 97 292 -1728
2019-01-18 14:44:56 GMT 45.506954 4.638240 7,825 97 292 -1728
2019-01-18 14:44:53 GMT 45.507477 4.632568 7,900 97 292 -1728
2019-01-18 14:44:45 GMT 45.508907 4.617406 8,150 97 295 -1216
2019-01-18 14:44:42 GMT 45.509628 4.609876 8,275 97 294 -1408
2019-01-18 14:44:36 GMT 45.510498 4.600263 8,275 97 294 -1408
2019-01-18 14:44:31 GMT 45.511230 4.591958 8,450 97 297 -1088
2019-01-18 14:44:21 GMT 45.513191 4.571183 8,875 97 305 0
2019-01-18 14:44:14 GMT 45.514542 4.556848 8,825 97 303 -1216
2019-01-18 14:44:10 GMT 45.515148 4.550484 9,000 97 305 0
2019-01-18 14:44:04 GMT 45.516266 4.539054 8,950 97 304 -448
2019-01-18 14:43:59 GMT 45.517288 4.528377 9,000 97 305 -64
2019-01-18 14:43:50 GMT 45.519058 4.509626 9,000 97 305 0
2019-01-18 14:43:46 GMT 45.519848 4.501179 9,000 97 304 64
2019-01-18 14:43:42 GMT 45.520546 4.493944 9,000 97 303 0
2019-01-18 14:43:38 GMT 45.521198 4.486776 9,000 97 303 0
2019-01-18 14:43:32 GMT 45.522408 4.474115 9,000 97 301 0
2019-01-18 14:43:27 GMT 45.523453 4.462803 9,000 97 302 0
2019-01-18 14:43:18 GMT 45.524918 4.446782 9,000 97 302 0
2019-01-18 14:43:12 GMT 45.526180 4.433251 9,000 97 302 0
2019-01-18 14:43:05 GMT 45.527252 4.421474 9,000 97 302 0
2019-01-18 14:42:55 GMT 45.529205 4.400024 9,000 97 302 0
2019-01-18 14:42:51 GMT 45.530182 4.389172 9,000 97 303 0
2019-01-18 14:42:46 GMT 45.530743 4.383143 9,000 97 303 64
2019-01-18 14:42:35 GMT 45.532604 4.362778 9,000 97 305 0
2019-01-18 14:42:28 GMT 45.533909 4.348241 9,000 97 306 -64
2019-01-18 14:42:25 GMT 45.534531 4.341431 9,000 97 306 0
2019-01-18 14:42:18 GMT 45.536003 4.325666 9,000 97 306 -64
2019-01-18 14:42:14 GMT 45.536453 4.320504 9,000 97 306 0
2019-01-18 14:42:04 GMT 45.538376 4.299186 9,000 97 306 0
2019-01-18 14:41:56 GMT 45.539726 4.284199 9,000 97 306 64
2019-01-18 14:41:53 GMT 45.540283 4.277835 9,000 97 306 64
2019-01-18 14:41:43 GMT 45.542130 4.257268 9,000 97 309 0
2019-01-18 14:41:32 GMT 45.544281 4.233856 9,000 97 310 0
2019-01-18 14:41:21 GMT 45.546059 4.213994 9,000 97 310 0
2019-01-18 14:41:11 GMT 45.547852 4.193294 9,000 96 307 0
2019-01-18 14:41:01 GMT 45.549690 4.171921 9,000 96 306 0
2019-01-18 14:40:50 GMT 45.551468 4.151023 9,000 96 307 -64
2019-01-18 14:40:40 GMT 45.553207 4.130055 9,000 96 308 0
2019-01-18 14:40:29 GMT 45.555088 4.107651 9,000 96 310 64
2019-01-18 14:40:19 GMT 45.556950 4.085266 9,000 96 312 0
2019-01-18 14:40:08 GMT 45.558533 4.066383 9,000 96 311 -128
2019-01-18 14:39:58 GMT 45.560394 4.044342 9,025 96 308 -256
2019-01-18 14:39:47 GMT 45.562397 4.021271 9,100 97 306 -960
2019-01-18 14:39:36 GMT 45.564148 4.002306 9,325 97 308 -1344
2019-01-18 14:39:26 GMT 45.566208 3.981204 9,550 98 313 -1216
2019-01-18 14:39:16 GMT 45.568359 3.959633 9,725 97 320 -704
2019-01-18 14:39:05 GMT 45.570499 3.937157 9,850 97 328 -704
2019-01-18 14:38:55 GMT 45.572617 3.914482 9,975 97 337 -640
2019-01-18 14:38:44 GMT 45.574768 3.891170 10,100 97 348 -576
2019-01-18 14:38:33 GMT 45.577389 3.865746 10,200 99 359 -768
2019-01-18 14:38:23 GMT 45.580399 3.843138 10,400 102 365 -2240
2019-01-18 14:38:12 GMT 45.584415 3.817131 10,875 102 365 -2816
2019-01-18 14:38:02 GMT 45.588364 3.790752 11,350 102 363 -2688
2019-01-18 14:37:52 GMT 45.591770 3.768242 11,800 102 363 -2368
2019-01-18 14:37:41 GMT 45.595505 3.743725 12,225 102 364 -2176
2019-01-18 14:37:30 GMT 45.599266 3.718666 12,600 102 367 -1984
2019-01-18 14:37:20 GMT 45.602875 3.694354 12,950 101 369 -2112
2019-01-18 14:37:09 GMT 45.606583 3.668831 13,325 101 372 -1856
2019-01-18 14:36:59 GMT 45.610020 3.644096 13,650 100 375 -1920
2019-01-18 14:36:49 GMT 45.613495 3.618052 14,325 100 378 -2368
2019-01-18 14:36:41 GMT 45.615887 3.599808 14,600 101 375 -3200
2019-01-18 14:36:38 GMT 45.616882 3.592462 14,600 101 375 -3200
2019-01-18 14:36:28 GMT 45.620308 3.568153 15,050 101 370 -3200
2019-01-18 14:36:20 GMT 45.623241 3.547829 15,525 101 366 -3456
2019-01-18 14:36:17 GMT 45.624069 3.541751 15,675 101 365 -3392
2019-01-18 14:36:07 GMT 45.627480 3.517754 16,200 101 361 -2048
2019-01-18 14:35:59 GMT 45.630039 3.499352 16,450 101 363 -1472
2019-01-18 14:35:55 GMT 45.631302 3.490303 16,550 101 364 -1472
2019-01-18 14:35:48 GMT 45.633671 3.473671 16,725 101 366 -1728
2019-01-18 14:35:44 GMT 45.634880 3.465088 16,875 101 366 -1792
2019-01-18 14:35:38 GMT 45.637344 3.447027 17,150 100 370 -1472
2019-01-18 14:35:35 GMT 45.637802 3.443812 17,100 100 371 -1472
2019-01-18 14:35:26 GMT 45.641026 3.419289 17,350 100 374 -1856
2019-01-18 14:35:19 GMT 45.642792 3.405360 17,525 100 372 -1792
2019-01-18 14:35:16 GMT 45.643616 3.398661 17,675 100 374 -1856
2019-01-18 14:35:13 GMT 45.644794 3.389351 17,750 100 374 -1920
2019-01-18 14:35:06 GMT 45.648285 3.362297 18,075 100 376 -1728
2019-01-18 14:35:01 GMT 45.648285 3.362297 18,075 100 376 -1664
2019-01-18 14:34:54 GMT 45.650574 3.344131 19,425 99 389 -1600
2019-01-18 14:34:51 GMT 45.651443 3.337231 18,375 100 378 -1792
2019-01-18 14:34:44 GMT 45.653549 3.320484 18,575 100 379 -1792
2019-01-18 14:34:41 GMT 45.654648 3.311507 18,675 99 380 -1792
2019-01-18 14:34:33 GMT 45.656944 3.293015 18,900 99 382 -1856
2019-01-18 14:34:30 GMT 45.657990 3.284577 19,025 99 382 -1856
2019-01-18 14:34:24 GMT 45.659878 3.269119 19,600 99 384 -1792
2019-01-18 14:34:21 GMT 45.661041 3.259575 19,375 99 384 -1792
2019-01-18 14:34:12 GMT 45.663574 3.238689 19,600 99 405 -1792
2019-01-18 14:34:08 GMT 45.664536 3.230650 19,675 99 388 -1664
2019-01-18 14:34:02 GMT 45.666870 3.211759 19,875 100 390 -1536
2019-01-18 14:33:58 GMT 45.667786 3.204256 19,950 100 390 -1536
2019-01-18 14:33:52 GMT 45.669559 3.189537 20,100 99 394 -1728
2019-01-18 14:33:48 GMT 45.671051 3.177589 20,275 99 394 -1664
2019-01-18 14:33:39 GMT 45.674057 3.152473 20,500 99 396 -1792
2019-01-18 14:33:31 GMT 45.676208 3.134654 20,725 99 399 -1792
2019-01-18 14:33:27 GMT 45.677307 3.125208 20,850 99 400 -1856
2019-01-18 14:33:21 GMT 45.679337 3.107964 21,050 99 401 -1920
2019-01-18 14:33:17 GMT 45.680511 3.097944 21,175 99 403 -1856
2019-01-18 14:33:10 GMT 45.682480 3.081129 21,375 99 404 -1856
2019-01-18 14:33:07 GMT 45.683853 3.069443 21,475 99 406 -1792
2019-01-18 14:32:59 GMT 45.685947 3.051247 21,725 99 407 -1984
2019-01-18 14:32:52 GMT 45.688274 3.030853 21,975 99 409 -2112
2019-01-18 14:32:49 GMT 45.688889 3.025193 23,775 98 409 -2304
2019-01-18 14:32:46 GMT 45.690216 3.013268 22,225 98 409 -2368
2019-01-18 14:32:41 GMT 45.691452 3.001813 22,400 98 409 -2304
2019-01-18 14:32:37 GMT 45.692467 2.992744 22,550 98 409 -2304
2019-01-18 14:32:33 GMT 45.693695 2.981314 22,700 98 409 -2304
2019-01-18 14:32:28 GMT 45.695026 2.968781 23,050 98 410 -2368
2019-01-18 14:32:24 GMT 45.696442 2.955590 23,075 98 410 -2368
2019-01-18 14:32:18 GMT 45.697960 2.941383 23,300 98 410 -2432
2019-01-18 14:32:13 GMT 45.699326 2.928727 23,475 98 410 -2240
2019-01-18 14:32:06 GMT 45.701355 2.909866 23,775 98 412 -1920
2019-01-18 14:31:56 GMT 45.704224 2.882772 24,475 98 416 -1664
2019-01-18 14:31:49 GMT 45.707291 2.854302 25,450 99 435 -1536
2019-01-18 14:31:46 GMT 45.707291 2.854302 24,350 98 420 -1792
2019-01-18 14:31:35 GMT 45.710403 2.825563 24,725 98 423 -2304
2019-01-18 14:31:28 GMT 45.712948 2.802063 25,050 98 423 -2496
2019-01-18 14:31:25 GMT 45.713600 2.796089 25,150 98 423 -2560
2019-01-18 14:31:21 GMT 45.714809 2.785446 25,450 99 435 -1536
2019-01-18 14:31:14 GMT 45.716812 2.766701 25,625 98 423 -2432
2019-01-18 14:31:10 GMT 45.717880 2.756607 25,750 98 424 -2304
2019-01-18 14:31:04 GMT 45.719833 2.738342 26,450 98 425 -2368
2019-01-18 14:30:59 GMT 45.721573 2.721930 26,225 98 425 -2432
2019-01-18 14:30:51 GMT 45.724091 2.697612 26,575 98 426 -2048
2019-01-18 14:30:42 GMT 45.725967 2.679525 26,925 98 430 -1344
2019-01-18 14:30:39 GMT 45.726974 2.669477 26,950 99 435 -1536
2019-01-18 14:30:30 GMT 45.729813 2.643485 27,075 99 434 -1408
2019-01-18 14:30:24 GMT 45.731781 2.628412 27,300 99 435 -1536
2019-01-18 14:30:21 GMT 45.733433 2.618935 27,400 107 437 -2176
2019-01-18 14:30:17 GMT 45.735573 2.608910 27,850 109 436 -2240
2019-01-18 14:30:09 GMT 45.744976 2.578629 28,000 118 434 -2304
2019-01-18 14:29:58 GMT 45.753799 2.559212 28,325 128 431 -2112
2019-01-18 14:29:50 GMT 45.763878 2.542030 28,600 134 429 -2112
2019-01-18 14:29:47 GMT 45.768391 2.535645 28,725 138 428 -2048
2019-01-18 14:29:39 GMT 45.781860 2.519621 29,000 143 427 -1984
2019-01-18 14:29:36 GMT 45.785057 2.516350 29,100 147 425 -2048
2019-01-18 14:29:29 GMT 45.797241 2.505888 29,925 165 413 -3008
2019-01-18 14:29:26 GMT 45.801727 2.502672 29,450 155 421 -2368
2019-01-18 14:29:19 GMT 45.814663 2.494926 29,775 161 416 -2944
2019-01-18 14:29:15 GMT 45.820953 2.492021 29,950 164 413 -3008
2019-01-18 14:29:05 GMT 45.840687 2.486137 30,500 174 404 -2816
2019-01-18 14:29:00 GMT 45.848648 2.484987 30,700 179 399 -2624
2019-01-18 14:28:55 GMT 45.863159 2.484987 31,075 186 394 -2368
2019-01-18 14:28:47 GMT 45.878952 2.487934 31,350 191 392 -1920
2019-01-18 14:28:44 GMT 45.878952 2.487934 31,400 195 390 -1856
2019-01-18 14:28:37 GMT 45.890121 2.491954 31,900 201 387 -1920
2019-01-18 14:28:33 GMT 45.897388 2.495544 31,775 205 386 -1856
2019-01-18 14:28:29 GMT 45.904743 2.500076 31,900 221 385 -1408
2019-01-18 14:28:25 GMT 45.911819 2.505285 32,050 211 384 -1600
2019-01-18 14:28:18 GMT 45.921478 2.513993 32,275 219 384 -1472
2019-01-18 14:28:14 GMT 45.927200 2.520156 32,325 221 385 -1408
2019-01-18 14:28:09 GMT 45.933838 2.528366 32,575 240 382 -2688
2019-01-18 14:28:03 GMT 45.941940 2.540588 32,625 230 385 -2048
2019-01-18 14:27:58 GMT 45.946686 2.549103 32,800 236 383 -2688
2019-01-18 14:27:53 GMT 45.951553 2.559480 33,050 241 382 -2624
2019-01-18 14:27:47 GMT 45.957504 2.575423 33,300 246 380 -2176
2019-01-18 14:27:44 GMT 45.959106 2.580447 33,425 248 380 -1984
2019-01-18 14:27:40 GMT 45.961624 2.589424 33,500 249 380 -1856
2019-01-18 14:27:33 GMT 45.965515 2.605702 33,775 255 380 -1088
2019-01-18 14:27:30 GMT 45.966614 2.611464 33,800 256 380 -960
2019-01-18 14:27:27 GMT 45.967869 2.619209 33,875 263 382 -384
2019-01-18 14:27:23 GMT 45.969170 2.629921 33,900 264 382 -320
2019-01-18 14:27:19 GMT 45.970047 2.641676 33,950 268 382 -256
2019-01-18 14:27:12 GMT 45.970230 2.659629 33,975 273 382 0
2019-01-18 14:27:09 GMT 45.970009 2.666656 33,975 277 382 0
2019-01-18 14:27:00 GMT 45.967667 2.698282 33,975 277 382 0
2019-01-18 14:26:51 GMT 45.966751 2.710207 33,975 277 382 0
2019-01-18 14:26:48 GMT 45.966202 2.717107 33,975 277 382 0
2019-01-18 14:26:42 GMT 45.964783 2.734323 33,975 277 382 0
2019-01-18 14:26:38 GMT 45.964096 2.742362 34,000 277 381 0
2019-01-18 14:26:31 GMT 45.962467 2.762169 34,000 277 381 0
2019-01-18 14:26:28 GMT 45.961487 2.774383 34,000 277 381 0
2019-01-18 14:26:20 GMT 45.960281 2.789017 34,000 277 381 -64
2019-01-18 14:26:17 GMT 45.959766 2.795471 34,000 277 381 -64
2019-01-18 14:26:11 GMT 45.958191 2.814577 34,000 277 381 0
2019-01-18 14:26:07 GMT 45.956909 2.829716 34,000 277 381 0
2019-01-18 14:26:01 GMT 45.956184 2.838249 34,000 277 381 0
2019-01-18 14:25:57 GMT 45.955624 2.845322 34,000 277 381 0
2019-01-18 14:25:54 GMT 45.954834 2.854317 34,000 277 381 0
2019-01-18 14:25:48 GMT 45.953575 2.869423 34,000 278 381 0
2019-01-18 14:25:43 GMT 45.952553 2.881645 34,000 278 381 0
2019-01-18 14:25:37 GMT 45.951187 2.897242 34,000 278 381 0
2019-01-18 14:25:33 GMT 45.950409 2.906420 34,000 278 381 0
2019-01-18 14:25:27 GMT 45.949154 2.920853 34,000 278 381 0
2019-01-18 14:25:23 GMT 45.947945 2.934654 34,000 278 381 0
2019-01-18 14:25:19 GMT 45.947205 2.943398 34,000 278 381 0
2019-01-18 14:25:14 GMT 45.946014 2.957131 34,000 278 382 0
2019-01-18 14:25:10 GMT 45.945290 2.965279 34,000 278 382 0
2019-01-18 14:25:06 GMT 45.944504 2.974481 34,000 278 382 0
2019-01-18 14:25:03 GMT 45.943848 2.981964 34,000 278 382 0
2019-01-18 14:25:00 GMT 45.943222 2.989554 34,000 278 382 -64
2019-01-18 14:24:57 GMT 45.942543 2.997482 34,000 278 382 -64
2019-01-18 14:24:53 GMT 45.941612 3.008263 34,025 278 382 0
2019-01-18 14:24:49 GMT 45.940823 3.017395 34,025 278 382 0
2019-01-18 14:24:45 GMT 45.939880 3.028073 34,025 278 383 0
2019-01-18 14:24:42 GMT 45.938370 3.045290 34,000 278 383 64
2019-01-18 14:24:34 GMT 45.937469 3.055435 34,000 278 383 64
2019-01-18 14:24:31 GMT 45.936909 3.061890 34,000 278 383 0
2019-01-18 14:24:28 GMT 45.936073 3.071571 34,000 278 383 0
2019-01-18 14:24:25 GMT 45.935513 3.078026 34,000 278 383 0
2019-01-18 14:24:21 GMT 45.934570 3.088297 34,000 278 383 0
2019-01-18 14:24:16 GMT 45.933243 3.103303 34,000 278 383 -64
2019-01-18 14:24:13 GMT 45.932816 3.108101 34,000 278 384 320
2019-01-18 14:24:08 GMT 45.931698 3.121010 34,000 278 383 0
2019-01-18 14:24:03 GMT 45.930252 3.136940 34,000 278 383 0
2019-01-18 14:23:59 GMT 45.929649 3.144081 34,000 278 383 0
2019-01-18 14:23:55 GMT 45.928345 3.158435 34,000 278 383 0
2019-01-18 14:23:52 GMT 45.928162 3.160780 34,000 278 383 0
2019-01-18 14:23:47 GMT 45.926743 3.176657 34,000 278 383 -64
2019-01-18 14:23:43 GMT 45.926010 3.184896 34,000 278 382 0
2019-01-18 14:23:39 GMT 45.925179 3.194550 34,000 278 384 320
2019-01-18 14:23:36 GMT 45.923130 3.217346 34,000 278 382 0
2019-01-18 14:23:31 GMT 45.923130 3.217346 34,000 278 382 0
2019-01-18 14:23:28 GMT 45.921844 3.231990 34,000 278 382 0
2019-01-18 14:23:20 GMT 45.921127 3.240555 34,000 278 381 0
2019-01-18 14:23:17 GMT 45.920242 3.250144 34,000 278 381 0
2019-01-18 14:23:14 GMT 45.919685 3.256554 34,000 278 381 0
2019-01-18 14:23:10 GMT 45.918800 3.266785 34,000 278 381 0
2019-01-18 14:23:07 GMT 45.918137 3.274194 34,000 278 381 0
2019-01-18 14:23:04 GMT 45.917450 3.282233 34,000 278 381 0
2019-01-18 14:22:59 GMT 45.916443 3.293420 34,000 278 382 0
2019-01-18 14:22:56 GMT 45.915775 3.300980 34,000 278 384 320
2019-01-18 14:22:53 GMT 45.915169 3.307915 34,000 278 382 64
2019-01-18 14:22:48 GMT 45.914108 3.320216 34,000 278 383 128
2019-01-18 14:22:44 GMT 45.912937 3.333115 33,975 278 384 256
2019-01-18 14:22:38 GMT 45.911678 3.347122 33,975 278 384 320
2019-01-18 14:22:33 GMT 45.910675 3.358467 33,925 278 386 704
2019-01-18 14:22:28 GMT 45.909348 3.373071 33,875 278 386 1024
2019-01-18 14:22:23 GMT 45.908157 3.386000 33,775 278 386 1216
2019-01-18 14:22:17 GMT 45.907013 3.398996 33,675 278 386 1088
2019-01-18 14:22:13 GMT 45.905869 3.411389 33,575 278 385 960
2019-01-18 14:22:07 GMT 45.904556 3.425949 33,325 278 383 896
2019-01-18 14:22:02 GMT 45.903580 3.437279 33,400 278 383 896
2019-01-18 14:21:56 GMT 45.902069 3.453927 33,300 278 382 832
2019-01-18 14:21:53 GMT 45.901154 3.464043 33,250 278 381 768
2019-01-18 14:21:46 GMT 45.899597 3.481393 33,175 278 379 640
2019-01-18 14:21:42 GMT 45.898819 3.489566 33,125 278 378 640
2019-01-18 14:21:35 GMT 45.897480 3.504295 33,050 278 376 640
2019-01-18 14:21:30 GMT 45.896317 3.516861 33,000 278 371 768
2019-01-18 14:21:25 GMT 45.895061 3.530457 32,950 278 371 768
2019-01-18 14:21:21 GMT 45.894196 3.539808 32,900 278 369 896
2019-01-18 14:21:14 GMT 45.892776 3.555350 32,800 278 368 960
2019-01-18 14:21:09 GMT 45.891521 3.569252 32,700 278 367 1088
2019-01-18 14:21:03 GMT 45.890312 3.582092 32,575 278 366 1472
2019-01-18 14:21:00 GMT 45.889526 3.590855 32,475 278 366 1664
2019-01-18 14:20:55 GMT 45.888218 3.605164 32,325 278 367 1728
2019-01-18 14:20:51 GMT 45.887512 3.612961 32,200 278 367 1728
2019-01-18 14:20:47 GMT 45.886780 3.620665 32,100 278 367 1792
2019-01-18 14:20:42 GMT 45.885681 3.632455 31,975 278 368 1856
2019-01-18 14:20:39 GMT 45.884865 3.641693 31,825 278 368 1984
2019-01-18 14:20:32 GMT 45.882492 3.667030 31,500 278 371 2432
2019-01-18 14:20:28 GMT 45.882492 3.667030 31,425 278 372 2432
2019-01-18 14:20:23 GMT 45.880489 3.688454 31,150 278 373 2496
2019-01-18 14:20:20 GMT 45.880489 3.688454 31,025 278 375 2496
2019-01-18 14:20:11 GMT 45.878632 3.708422 30,700 278 378 2496
2019-01-18 14:20:07 GMT 45.877647 3.718941 30,525 278 379 2496
2019-01-18 14:20:01 GMT 45.876392 3.732811 30,275 278 383 2368
2019-01-18 14:19:58 GMT 45.875648 3.740845 30,150 278 384 2048
2019-01-18 14:19:55 GMT 45.874878 3.749352 30,000 278 383 2304
2019-01-18 14:19:51 GMT 45.873917 3.759669 29,850 278 384 2048
2019-01-18 14:19:48 GMT 45.873276 3.766636 29,725 278 385 1920
2019-01-18 14:19:44 GMT 45.872314 3.776818 29,600 278 385 1920
2019-01-18 14:19:41 GMT 45.871582 3.784924 29,500 278 385 1920
2019-01-18 14:19:38 GMT 45.870808 3.793098 29,375 278 386 1920
2019-01-18 14:19:35 GMT 45.870293 3.798454 29,325 278 386 1920
2019-01-18 14:19:30 GMT 45.869064 3.811921 29,150 278 386 1792
2019-01-18 14:19:25 GMT 45.867828 3.824890 28,900 278 386 1344
2019-01-18 14:19:20 GMT 45.866547 3.838382 28,850 278 386 1344
2019-01-18 14:19:17 GMT 45.865997 3.844344 28,800 278 385 1344
2019-01-18 14:19:14 GMT 45.865219 3.852450 28,600 278 384 1408
2019-01-18 14:19:10 GMT 45.864101 3.864235 28,600 278 384 1600
2019-01-18 14:19:07 GMT 45.863449 3.871307 28,525 278 383 1728
2019-01-18 14:19:04 GMT 45.862839 3.877772 28,450 278 383 1792
2019-01-18 14:18:59 GMT 45.861374 3.893113 28,300 278 383 1728
2019-01-18 14:18:56 GMT 45.860870 3.898673 28,200 278 383 1664
2019-01-18 14:18:53 GMT 45.860191 3.905640 28,125 278 383 1664
2019-01-18 14:18:48 GMT 45.859074 3.917381 28,000 278 382 1728
2019-01-18 14:18:45 GMT 45.858192 3.926514 27,875 278 382 1728
2019-01-18 14:18:41 GMT 45.857212 3.936607 27,775 278 382 1792
2019-01-18 14:18:38 GMT 45.856560 3.943680 27,675 278 382 1664
2019-01-18 14:18:35 GMT 45.855927 3.950054 27,600 278 381 1600
2019-01-18 14:18:30 GMT 45.854748 3.962357 27,475 278 381 1536
2019-01-18 14:18:25 GMT 45.853455 3.976180 27,325 278 380 1600
2019-01-18 14:18:21 GMT 45.852650 3.984604 26,975 278 379 1664
2019-01-18 14:18:14 GMT 45.850929 4.002182 27,025 278 378 1728
2019-01-18 14:18:10 GMT 45.849766 4.014336 26,875 278 377 1728
2019-01-18 14:18:04 GMT 45.848370 4.029099 26,700 278 377 1792
2019-01-18 14:18:00 GMT 45.846088 4.052788 26,500 278 372 1856
2019-01-18 14:17:55 GMT 45.846088 4.052788 26,425 278 376 1920
2019-01-18 14:17:48 GMT 45.844803 4.066013 26,225 278 376 1856
2019-01-18 14:17:44 GMT 45.843620 4.078606 26,125 278 375 1664
2019-01-18 14:17:39 GMT 45.842270 4.092613 25,950 278 374 1728
2019-01-18 14:17:33 GMT 45.840828 4.107857 25,725 278 373 1728
2019-01-18 14:17:28 GMT 45.839951 4.117260 25,625 278 373 1728
2019-01-18 14:17:24 GMT 45.838898 4.128247 25,450 278 372 1856
2019-01-18 14:17:17 GMT 45.837429 4.143356 25,300 278 371 1856
2019-01-18 14:17:11 GMT 45.836014 4.158392 25,175 278 370 1856
2019-01-18 14:17:06 GMT 45.834869 4.170204 24,925 278 369 1984
2019-01-18 14:17:02 GMT 45.834030 4.179062 24,750 278 369 2048
2019-01-18 14:16:59 GMT 45.833221 4.187265 24,700 278 368 2048
2019-01-18 14:16:56 GMT 45.832489 4.194969 24,575 278 368 1984
2019-01-18 14:16:50 GMT 45.831051 4.209961 24,375 278 368 1920
2019-01-18 14:16:45 GMT 45.830063 4.220291 24,225 278 367 1920
2019-01-18 14:16:40 GMT 45.828415 4.237172 24,000 278 366 1920
2019-01-18 14:16:34 GMT 45.827362 4.248226 23,875 278 365 1920
2019-01-18 14:16:31 GMT 45.826721 4.255005 23,750 278 365 1920
2019-01-18 14:16:26 GMT 45.825394 4.268657 23,600 278 364 1984
2019-01-18 14:16:22 GMT 45.824581 4.276978 23,450 279 363 1984
2019-01-18 14:16:17 GMT 45.823509 4.287621 23,300 279 362 2048
2019-01-18 14:16:13 GMT 45.822578 4.297234 23,150 278 362 2112
2019-01-18 14:16:10 GMT 45.821640 4.306708 23,050 278 361 2048
2019-01-18 14:16:05 GMT 45.820763 4.315910 22,850 278 361 1920
2019-01-18 14:16:02 GMT 45.820175 4.322986 22,725 275 359 1664
2019-01-18 14:15:59 GMT 45.819626 4.330623 22,700 274 358 1664
2019-01-18 14:15:56 GMT 45.819397 4.337121 22,525 270 357 1728
2019-01-18 14:15:51 GMT 45.819580 4.348777 22,300 261 353 2048
2019-01-18 14:15:46 GMT 45.820621 4.362190 22,300 260 352 2176
2019-01-18 14:15:41 GMT 45.821960 4.373496 22,100 260 352 2240
2019-01-18 14:15:36 GMT 45.823746 4.387631 21,875 260 351 2368
2019-01-18 14:15:31 GMT 45.825558 4.401810 21,625 260 351 2176
2019-01-18 14:15:22 GMT 45.827976 4.420761 21,325 260 349 2176
2019-01-18 14:15:18 GMT 45.828598 4.425615 21,250 260 349 2176
2019-01-18 14:15:13 GMT 45.829880 4.435797 21,075 260 348 2368
2019-01-18 14:15:10 GMT 45.830864 4.443558 20,950 260 347 2496
2019-01-18 14:15:04 GMT 45.832912 4.459969 20,650 260 347 2496
2019-01-18 14:15:00 GMT 45.833771 4.466746 20,500 260 347 2496
2019-01-18 14:14:57 GMT 45.834595 4.472976 20,400 260 347 2432
2019-01-18 14:14:53 GMT 45.835751 4.482216 20,225 260 347 2432
2019-01-18 14:14:49 GMT 45.836868 4.491348 20,025 260 346 2368
2019-01-18 14:14:46 GMT 45.837566 4.496635 19,925 260 345 2304
2019-01-18 14:14:43 GMT 45.838760 4.506203 19,800 260 345 2304
2019-01-18 14:14:37 GMT 45.840267 4.518265 19,625 260 344 2496
2019-01-18 14:14:32 GMT 45.842503 4.536392 19,225 260 344 2624
2019-01-18 14:14:29 GMT 45.843201 4.541679 19,100 260 344 2560
2019-01-18 14:14:26 GMT 45.843201 4.541679 19,125 260 344 2560
2019-01-18 14:14:23 GMT 45.844254 4.550283 18,975 260 343 2432
2019-01-18 14:14:19 GMT 45.845341 4.558914 18,800 260 338 2688
2019-01-18 14:14:16 GMT 45.846272 4.566055 18,675 260 342 2432
2019-01-18 14:14:13 GMT 45.847252 4.574089 18,525 260 342 2496
2019-01-18 14:14:09 GMT 45.849243 4.589740 18,350 260 341 2496
2019-01-18 14:14:05 GMT 45.849243 4.589740 17,675 260 339 2624
2019-01-18 14:14:02 GMT 45.850433 4.599051 17,950 260 339 2560
2019-01-18 14:13:58 GMT 45.851212 4.605348 17,950 260 339 2560
2019-01-18 14:13:55 GMT 45.852325 4.614189 17,800 260 339 2624
2019-01-18 14:13:51 GMT 45.853134 4.620421 17,675 260 338 2688
2019-01-18 14:13:48 GMT 45.854050 4.627522 17,600 260 338 2816
2019-01-18 14:13:42 GMT 45.855560 4.639781 17,225 260 338 2944
2019-01-18 14:13:38 GMT 45.856747 4.649071 17,025 260 338 2752
2019-01-18 14:13:32 GMT 45.858421 4.662323 16,750 260 338 2560
2019-01-18 14:13:29 GMT 45.859306 4.669327 16,650 260 337 2688
2019-01-18 14:13:23 GMT 45.861237 4.684798 16,175 260 336 2944
2019-01-18 14:13:19 GMT 45.862106 4.691832 16,125 260 336 2944
2019-01-18 14:13:16 GMT 45.862938 4.698303 15,975 260 336 3008
2019-01-18 14:13:12 GMT 45.863892 4.705900 15,825 260 337 2816
2019-01-18 14:13:09 GMT 45.864624 4.711929 15,650 260 336 2816
2019-01-18 14:13:06 GMT 45.865685 4.720345 15,475 260 336 2816
2019-01-18 14:13:01 GMT 45.867050 4.731088 15,250 260 334 2752
2019-01-18 14:12:57 GMT 45.868340 4.741287 15,025 260 333 3136
2019-01-18 14:12:50 GMT 45.870071 4.754802 14,550 260 334 3520
2019-01-18 14:12:46 GMT 45.871223 4.764015 14,450 260 334 3648
2019-01-18 14:12:42 GMT 45.873276 4.779924 14,125 260 336 3584
2019-01-18 14:12:39 GMT 45.873276 4.779924 13,975 260 336 3456
2019-01-18 14:12:36 GMT 45.874485 4.789558 13,775 260 337 3456
2019-01-18 14:12:31 GMT 45.876160 4.802834 13,525 260 337 3136
2019-01-18 14:12:28 GMT 45.876160 4.802834 13,400 260 336 2944
2019-01-18 14:12:25 GMT 45.876938 4.808930 13,250 260 336 2816
2019-01-18 14:12:19 GMT 45.878765 4.823410 12,950 260 335 2816
2019-01-18 14:12:15 GMT 45.879745 4.831306 12,825 261 334 2752
2019-01-18 14:12:10 GMT 45.881329 4.844147 11,650 261 328 2240
2019-01-18 14:12:05 GMT 45.882431 4.853478 12,325 261 328 2240
2019-01-18 14:11:58 GMT 45.884445 4.870360 12,075 261 322 1536
2019-01-18 14:11:55 GMT 45.885361 4.877863 12,000 261 319 1344
2019-01-18 14:11:50 GMT 45.886074 4.884178 11,650 261 311 1280
2019-01-18 14:11:47 GMT 45.887054 4.892399 11,825 261 311 1280
2019-01-18 14:11:44 GMT 45.887695 4.897692 11,825 261 311 1280
2019-01-18 14:11:37 GMT 45.889938 4.917137 11,550 261 294 1280
2019-01-18 14:11:29 GMT 45.890991 4.926095 11,450 261 289 1408
2019-01-18 14:11:24 GMT 45.892822 4.941436 11,350 261 282 1792
2019-01-18 14:11:19 GMT 45.893246 4.945084 11,150 261 278 2560
2019-01-18 14:11:15 GMT 45.894196 4.953226 10,775 261 275 3264
2019-01-18 14:11:12 GMT 45.894779 4.957787 10,800 260 275 3584
2019-01-18 14:11:08 GMT 45.895523 4.963878 10,575 260 275 3968
2019-01-18 14:11:04 GMT 45.896458 4.971588 10,275 260 275 4672
2019-01-18 14:10:58 GMT 45.897858 4.982769 9,775 261 281 4608
2019-01-18 14:10:53 GMT 45.899185 4.993822 9,325 262 284 4032
2019-01-18 14:10:47 GMT 45.899918 5.002196 9,050 269 286 2944
2019-01-18 14:10:42 GMT 45.900040 5.011551 8,800 277 284 2688
2019-01-18 14:10:36 GMT 45.898598 5.023361 8,525 286 281 2688
2019-01-18 14:10:32 GMT 45.896828 5.030365 8,325 294 277 3008
2019-01-18 14:10:26 GMT 45.893616 5.039429 8,050 302 274 3264
2019-01-18 14:10:23 GMT 45.890259 5.046409 7,775 311 271 3136
2019-01-18 14:10:15 GMT 45.884857 5.054850 7,425 319 266 2944
2019-01-18 14:10:11 GMT 45.881058 5.059472 7,225 324 264 3072
2019-01-18 14:10:05 GMT 45.874557 5.065501 6,975 332 260 3328
2019-01-18 14:10:02 GMT 45.861969 5.071798 6,150 355 252 3776
2019-01-18 14:09:55 GMT 45.861969 5.071798 6,250 350 254 3520
2019-01-18 14:09:51 GMT 45.857632 5.072731 5,950 355 252 3776
2019-01-18 14:09:44 GMT 45.850937 5.073540 5,575 356 252 3712
2019-01-18 14:09:41 GMT 45.847485 5.073967 5,375 356 252 3712
2019-01-18 14:09:33 GMT 45.837753 5.074997 4,825 356 252 3712
2019-01-18 14:09:30 GMT 45.834820 5.075272 4,675 356 252 3648
2019-01-18 14:09:21 GMT 45.822903 5.076576 4,075 356 248 2624
2019-01-18 14:09:10 GMT 45.811638 5.077950 3,700 355 237 1792
2019-01-18 14:09:00 GMT 45.799805 5.079435 3,325 355 222 2112
2019-01-18 14:08:49 GMT 45.789528 5.080765 2,925 355 211 2048
2019-01-18 14:08:38 GMT 45.779205 5.081981 2,625 356 197 1152
2019-01-18 14:08:29 GMT 45.770485 5.082962 2,425 356 184 1216
2019-01-18 14:08:18 GMT 45.762039 5.083990 2,200 355 171 1344
2019-01-18 14:08:06 GMT 45.752659 5.085091 1,850 356 161 2560
2019-01-18 14:07:57 GMT 45.746326 5.085846 1,475 356 162 2560
2019-01-18 14:07:47 GMT 45.737778 5.086938 1,075 355 160 1728
2019-01-18 14:05:59 GMT 45.710819 5.088421 0 106 10
2019-01-18 14:05:45 GMT 45.710968 5.087597 0 104 11
2019-01-18 14:04:58 GMT 45.712170 5.085485 0 174 12
2019-01-18 14:04:31 GMT 45.713322 5.085348 0 174 8
2019-01-18 14:04:28 GMT 45.713459 5.085331 0 174 8
2019-01-18 14:04:16 GMT 45.713856 5.085279 0 157 8

Making use of Plane Finder data

You are free to use the raw flight data, aircraft information and images provided in this report for your own purposes provided the data is correctly attributed to Plane Finder. We ask that you please credit Plane Finder and link to planefinder.net in close proximity to the content.

Optionally one of the following logos (no smaller then 150x24px) can be used and must link to planefinder.net

Embedding the Plane Finder map

You are welcome to embed the Plane Finder playback map on your website to offer visitors a more interactive experience. We suggest using the following HTML code:

<iframe src="//planefinder.net/data/report/U24319-G-EZDA-7700-squawk-2019-01-18/map" width="800" height="600" seamless="seamless"></iframe>

Where our data comes from

Plane Finder has a global network of data feeds and antenna radars that receive data broadcast directly from aircraft. The primary technologies used are ADS-B and MLAT. We also show feeds from the FAA and a FLARM glider feed.

Click here to find out more about the Plane Finder network.

How we collect our data